sensor_id;sensor_type;location;lat;lon;timestamp;pressure;altitude;pressure_sealevel;temperature;humidity
39363;BME280;25088;43.238;23.110;2024-01-30T00:01:57;98724.66;;;2.41;68.14
39363;BME280;25088;43.238;23.110;2024-01-30T00:04:22;98724.22;;;2.45;67.04
39363;BME280;25088;43.238;23.110;2024-01-30T00:06:48;98724.59;;;2.50;66.68
39363;BME280;25088;43.238;23.110;2024-01-30T00:09:13;98704.56;;;2.35;67.55
39363;BME280;25088;43.238;23.110;2024-01-30T00:11:39;98700.56;;;2.39;67.19
39363;BME280;25088;43.238;23.110;2024-01-30T00:14:05;98710.69;;;2.55;66.62
39363;BME280;25088;43.238;23.110;2024-01-30T00:16:31;98712.38;;;2.56;66.97
39363;BME280;25088;43.238;23.110;2024-01-30T00:18:56;98713.03;;;2.58;66.56
39363;BME280;25088;43.238;23.110;2024-01-30T00:21:22;98721.47;;;2.55;66.33
39363;BME280;25088;43.238;23.110;2024-01-30T00:23:48;98719.16;;;2.60;66.46
39363;BME280;25088;43.238;23.110;2024-01-30T00:26:14;98721.41;;;2.65;65.84
39363;BME280;25088;43.238;23.110;2024-01-30T00:28:43;98731.13;;;2.75;65.70
39363;BME280;25088;43.238;23.110;2024-01-30T00:31:09;98727.81;;;2.81;65.02
39363;BME280;25088;43.238;23.110;2024-01-30T00:33:40;98719.00;;;2.62;65.56
39363;BME280;25088;43.238;23.110;2024-01-30T00:36:07;98730.00;;;2.68;65.98
39363;BME280;25088;43.238;23.110;2024-01-30T00:38:33;98731.19;;;2.66;65.99
39363;BME280;25088;43.238;23.110;2024-01-30T00:40:59;98736.69;;;2.74;64.97
39363;BME280;25088;43.238;23.110;2024-01-30T00:43:24;98719.94;;;2.70;64.38
39363;BME280;25088;43.238;23.110;2024-01-30T00:45:53;98732.13;;;2.74;63.70
39363;BME280;25088;43.238;23.110;2024-01-30T00:48:18;98728.03;;;2.70;63.89
39363;BME280;25088;43.238;23.110;2024-01-30T00:50:44;98712.00;;;2.69;62.54
39363;BME280;25088;43.238;23.110;2024-01-30T00:53:09;98724.63;;;2.68;62.49
39363;BME280;25088;43.238;23.110;2024-01-30T00:55:35;98715.50;;;2.51;63.47
39363;BME280;25088;43.238;23.110;2024-01-30T00:58:01;98736.41;;;2.49;64.36
39363;BME280;25088;43.238;23.110;2024-01-30T01:00:26;98735.06;;;2.53;63.92
39363;BME280;25088;43.238;23.110;2024-01-30T01:02:56;98721.91;;;2.50;64.53
39363;BME280;25088;43.238;23.110;2024-01-30T01:05:21;98722.88;;;2.59;64.64
39363;BME280;25088;43.238;23.110;2024-01-30T01:07:47;98718.22;;;2.51;63.94
39363;BME280;25088;43.238;23.110;2024-01-30T01:10:16;98729.78;;;2.62;64.98
39363;BME280;25088;43.238;23.110;2024-01-30T01:12:42;98732.19;;;2.65;66.16
39363;BME280;25088;43.238;23.110;2024-01-30T01:15:08;98730.41;;;2.73;65.36
39363;BME280;25088;43.238;23.110;2024-01-30T01:17:37;98738.81;;;2.88;64.75
39363;BME280;25088;43.238;23.110;2024-01-30T01:20:04;98708.06;;;2.81;64.32
39363;BME280;25088;43.238;23.110;2024-01-30T01:22:30;98724.19;;;2.91;63.86
39363;BME280;25088;43.238;23.110;2024-01-30T01:24:56;98720.88;;;2.97;63.50
39363;BME280;25088;43.238;23.110;2024-01-30T01:27:21;98708.84;;;2.91;63.42
39363;BME280;25088;43.238;23.110;2024-01-30T01:29:47;98717.72;;;3.01;62.43
39363;BME280;25088;43.238;23.110;2024-01-30T01:32:12;98719.41;;;3.02;62.33
39363;BME280;25088;43.238;23.110;2024-01-30T01:34:38;98718.13;;;2.89;61.68
39363;BME280;25088;43.238;23.110;2024-01-30T01:37:03;98722.72;;;2.96;61.48
39363;BME280;25088;43.238;23.110;2024-01-30T01:39:29;98714.34;;;2.99;61.89
39363;BME280;25088;43.238;23.110;2024-01-30T01:41:54;98722.50;;;2.90;63.74
39363;BME280;25088;43.238;23.110;2024-01-30T01:44:20;98718.41;;;2.85;64.66
39363;BME280;25088;43.238;23.110;2024-01-30T01:46:45;98720.09;;;2.87;63.42
39363;BME280;25088;43.238;23.110;2024-01-30T01:49:11;98726.66;;;2.84;63.95
39363;BME280;25088;43.238;23.110;2024-01-30T01:51:37;98724.03;;;2.92;62.83
39363;BME280;25088;43.238;23.110;2024-01-30T01:54:06;98722.72;;;2.96;62.29
39363;BME280;25088;43.238;23.110;2024-01-30T01:56:33;98709.84;;;2.90;62.83
39363;BME280;25088;43.238;23.110;2024-01-30T01:59:04;98726.72;;;2.92;62.47
39363;BME280;25088;43.238;23.110;2024-01-30T02:01:31;98723.81;;;2.85;63.40
39363;BME280;25088;43.238;23.110;2024-01-30T02:03:58;98724.19;;;2.91;62.72
39363;BME280;25088;43.238;23.110;2024-01-30T02:06:23;98722.41;;;2.81;62.31
39363;BME280;25088;43.238;23.110;2024-01-30T02:08:49;98726.97;;;2.81;62.95
39363;BME280;25088;43.238;23.110;2024-01-30T02:11:14;98723.47;;;2.71;63.50
39363;BME280;25088;43.238;23.110;2024-01-30T02:13:42;98717.47;;;2.77;63.58
39363;BME280;25088;43.238;23.110;2024-01-30T02:16:07;98712.25;;;2.75;63.95
39363;BME280;25088;43.238;23.110;2024-01-30T02:18:32;98722.19;;;2.75;65.20
39363;BME280;25088;43.238;23.110;2024-01-30T02:23:27;98717.72;;;2.83;64.04
39363;BME280;25088;43.238;23.110;2024-01-30T02:25:53;98711.06;;;2.78;63.05
39363;BME280;25088;43.238;23.110;2024-01-30T02:28:19;98725.88;;;2.74;62.91
39363;BME280;25088;43.238;23.110;2024-01-30T02:30:45;98725.22;;;2.62;61.70
39363;BME280;25088;43.238;23.110;2024-01-30T02:33:14;98717.00;;;2.64;61.32
39363;BME280;25088;43.238;23.110;2024-01-30T02:35:39;98717.00;;;2.64;61.41
39363;BME280;25088;43.238;23.110;2024-01-30T02:38:05;98716.06;;;2.55;62.04
39363;BME280;25088;43.238;23.110;2024-01-30T02:40:31;98719.59;;;2.55;62.93
39363;BME280;25088;43.238;23.110;2024-01-30T02:42:58;98723.69;;;2.59;62.70
39363;BME280;25088;43.238;23.110;2024-01-30T02:45:24;98721.69;;;2.62;62.55
39363;BME280;25088;43.238;23.110;2024-01-30T02:47:49;98711.56;;;2.46;62.67
39363;BME280;25088;43.238;23.110;2024-01-30T02:50:15;98717.25;;;2.43;64.04
39363;BME280;25088;43.238;23.110;2024-01-30T02:52:41;98715.72;;;2.40;65.92
39363;BME280;25088;43.238;23.110;2024-01-30T02:55:09;98702.84;;;2.34;66.06
39363;BME280;25088;43.238;23.110;2024-01-30T02:57:35;98674.00;;;2.17;65.37
39363;BME280;25088;43.238;23.110;2024-01-30T03:00:00;98717.47;;;2.31;66.82
39363;BME280;25088;43.238;23.110;2024-01-30T03:02:26;98706.50;;;2.15;67.63
39363;BME280;25088;43.238;23.110;2024-01-30T03:04:51;98714.88;;;2.12;68.13
39363;BME280;25088;43.238;23.110;2024-01-30T03:07:17;98723.06;;;2.20;67.62
39363;BME280;25088;43.238;23.110;2024-01-30T03:09:42;98717.19;;;2.35;67.52
39363;BME280;25088;43.238;23.110;2024-01-30T03:12:09;98709.22;;;2.33;66.35
39363;BME280;25088;43.238;23.110;2024-01-30T03:14:34;98709.53;;;2.30;65.87
39363;BME280;25088;43.238;23.110;2024-01-30T03:17:00;98710.63;;;2.37;65.81
39363;BME280;25088;43.238;23.110;2024-01-30T03:19:25;98712.63;;;2.35;65.07
39363;BME280;25088;43.238;23.110;2024-01-30T03:21:51;98709.34;;;2.41;64.33
39363;BME280;25088;43.238;23.110;2024-01-30T03:24:16;98699.78;;;2.47;64.27
39363;BME280;25088;43.238;23.110;2024-01-30T03:26:42;98703.53;;;2.36;65.16
39363;BME280;25088;43.238;23.110;2024-01-30T03:29:08;98695.56;;;2.44;64.86
39363;BME280;25088;43.238;23.110;2024-01-30T03:31:34;98700.00;;;2.36;62.89
39363;BME280;25088;43.238;23.110;2024-01-30T03:33:59;98701.47;;;2.30;61.09
39363;BME280;25088;43.238;23.110;2024-01-30T03:36:25;98701.00;;;2.35;61.01
39363;BME280;25088;43.238;23.110;2024-01-30T03:38:51;98695.56;;;2.44;61.11
39363;BME280;25088;43.238;23.110;2024-01-30T03:41:16;98695.84;;;2.41;61.29
39363;BME280;25088;43.238;23.110;2024-01-30T03:43:42;98669.41;;;2.27;60.61
39363;BME280;25088;43.238;23.110;2024-01-30T03:46:07;98694.56;;;2.45;60.28
39363;BME280;25088;43.238;23.110;2024-01-30T03:48:33;98666.03;;;2.25;59.96
39363;BME280;25088;43.238;23.110;2024-01-30T03:50:58;98680.81;;;2.39;60.10
39363;BME280;25088;43.238;23.110;2024-01-30T03:53:24;98689.63;;;2.41;60.99
39363;BME280;25088;43.238;23.110;2024-01-30T03:55:49;98693.56;;;2.46;61.98
39363;BME280;25088;43.238;23.110;2024-01-30T03:58:15;98693.84;;;2.43;61.50
39363;BME280;25088;43.238;23.110;2024-01-30T04:00:40;98682.13;;;2.35;61.89
39363;BME280;25088;43.238;23.110;2024-01-30T04:03:06;98692.53;;;2.47;62.44
39363;BME280;25088;43.238;23.110;2024-01-30T04:05:32;98686.09;;;2.58;61.04
39363;BME280;25088;43.238;23.110;2024-01-30T04:07:57;98686.19;;;2.66;60.71
39363;BME280;25088;43.238;23.110;2024-01-30T04:10:23;98680.06;;;2.46;60.82
39363;BME280;25088;43.238;23.110;2024-01-30T04:12:50;98683.56;;;2.56;58.99
39363;BME280;25088;43.238;23.110;2024-01-30T04:15:17;98691.94;;;2.53;58.06
39363;BME280;25088;43.238;23.110;2024-01-30T04:17:42;98699.03;;;2.54;59.37
39363;BME280;25088;43.238;23.110;2024-01-30T04:20:11;98683.72;;;2.55;57.48
39363;BME280;25088;43.238;23.110;2024-01-30T04:22:37;98658.50;;;2.19;57.91
39363;BME280;25088;43.238;23.110;2024-01-30T04:25:03;98690.06;;;2.36;58.50
39363;BME280;25088;43.238;23.110;2024-01-30T04:27:28;98694.44;;;2.37;59.25
39363;BME280;25088;43.238;23.110;2024-01-30T04:29:54;98702.81;;;2.44;59.14
39363;BME280;25088;43.238;23.110;2024-01-30T04:32:19;98699.88;;;2.55;57.93
39363;BME280;25088;43.238;23.110;2024-01-30T04:34:44;98705.50;;;2.62;58.39
39363;BME280;25088;43.238;23.110;2024-01-30T04:37:10;98700.22;;;2.70;56.99
39363;BME280;25088;43.238;23.110;2024-01-30T04:39:36;98698.59;;;2.77;56.34
39363;BME280;25088;43.238;23.110;2024-01-30T04:42:02;98703.69;;;2.80;56.23
39363;BME280;25088;43.238;23.110;2024-01-30T04:44:27;98660.13;;;2.39;57.22
39363;BME280;25088;43.238;23.110;2024-01-30T04:46:53;98697.31;;;2.53;56.59
39363;BME280;25088;43.238;23.110;2024-01-30T04:49:19;98700.50;;;2.49;57.95
39363;BME280;25088;43.238;23.110;2024-01-30T04:51:44;98699.22;;;2.43;56.42
39363;BME280;25088;43.238;23.110;2024-01-30T04:54:09;98698.59;;;2.31;55.54
39363;BME280;25088;43.238;23.110;2024-01-30T04:56:35;98704.56;;;2.35;54.69
39363;BME280;25088;43.238;23.110;2024-01-30T04:59:02;98708.81;;;2.28;53.54
39363;BME280;25088;43.238;23.110;2024-01-30T05:01:28;98701.50;;;2.20;53.44
39363;BME280;25088;43.238;23.110;2024-01-30T05:03:53;98703.94;;;2.14;52.96
39363;BME280;25088;43.238;23.110;2024-01-30T05:06:25;98711.44;;;2.20;53.78
39363;BME280;25088;43.238;23.110;2024-01-30T05:08:51;98692.75;;;2.08;54.10
39363;BME280;25088;43.238;23.110;2024-01-30T05:11:17;98707.34;;;2.16;54.36
39363;BME280;25088;43.238;23.110;2024-01-30T05:13:42;98697.44;;;2.06;53.83
39363;BME280;25088;43.238;23.110;2024-01-30T05:16:07;98710.44;;;2.21;55.17
39363;BME280;25088;43.238;23.110;2024-01-30T05:18:33;98706.06;;;2.20;54.48
39363;BME280;25088;43.238;23.110;2024-01-30T05:20:58;98708.22;;;2.06;56.94
39363;BME280;25088;43.238;23.110;2024-01-30T05:23:24;98717.91;;;1.99;57.64
39363;BME280;25088;43.238;23.110;2024-01-30T05:25:50;98710.13;;;1.96;57.37
39363;BME280;25088;43.238;23.110;2024-01-30T05:28:15;98707.00;;;1.91;58.16
39363;BME280;25088;43.238;23.110;2024-01-30T05:30:41;98699.81;;;1.82;57.36
39363;BME280;25088;43.238;23.110;2024-01-30T05:33:06;98696.97;;;1.84;57.65
39363;BME280;25088;43.238;23.110;2024-01-30T05:35:32;98711.72;;;1.89;57.19
39363;BME280;25088;43.238;23.110;2024-01-30T05:37:57;98703.06;;;1.86;58.02
39363;BME280;25088;43.238;23.110;2024-01-30T05:40:23;98702.09;;;1.77;57.17
39363;BME280;25088;43.238;23.110;2024-01-30T05:42:48;98709.63;;;1.73;56.15
39363;BME280;25088;43.238;23.110;2024-01-30T05:45:13;98704.94;;;1.75;56.75
39363;BME280;25088;43.238;23.110;2024-01-30T05:47:39;98695.44;;;1.81;57.16
39363;BME280;25088;43.238;23.110;2024-01-30T05:50:05;98714.50;;;1.97;57.28
39363;BME280;25088;43.238;23.110;2024-01-30T05:52:31;98714.06;;;2.02;57.21
39363;BME280;25088;43.238;23.110;2024-01-30T05:54:58;98724.28;;;1.98;55.62
39363;BME280;25088;43.238;23.110;2024-01-30T05:57:23;98706.41;;;1.97;55.29
39363;BME280;25088;43.238;23.110;2024-01-30T05:59:49;98706.78;;;2.12;54.62
39363;BME280;25088;43.238;23.110;2024-01-30T06:02:16;98714.38;;;2.26;56.47
39363;BME280;25088;43.238;23.110;2024-01-30T06:04:42;98715.06;;;2.28;56.54
39363;BME280;25088;43.238;23.110;2024-01-30T06:07:07;98722.91;;;2.22;56.35
39363;BME280;25088;43.238;23.110;2024-01-30T06:09:33;98722.47;;;2.26;56.03
39363;BME280;25088;43.238;23.110;2024-01-30T06:11:58;98717.03;;;2.36;56.05
39363;BME280;25088;43.238;23.110;2024-01-30T06:14:24;98711.13;;;2.23;56.53
39363;BME280;25088;43.238;23.110;2024-01-30T06:16:49;98701.34;;;2.22;57.03
39363;BME280;25088;43.238;23.110;2024-01-30T06:19:15;98723.50;;;2.43;56.61
39363;BME280;25088;43.238;23.110;2024-01-30T06:21:41;98725.78;;;2.38;57.06
39363;BME280;25088;43.238;23.110;2024-01-30T06:24:06;98735.78;;;2.28;58.39
39363;BME280;25088;43.238;23.110;2024-01-30T06:26:32;98742.16;;;2.27;59.00
39363;BME280;25088;43.238;23.110;2024-01-30T06:28:57;98732.03;;;2.39;58.51
39363;BME280;25088;43.238;23.110;2024-01-30T06:31:22;98734.69;;;2.48;58.19
39363;BME280;25088;43.238;23.110;2024-01-30T06:33:49;98726.97;;;2.53;58.43
39363;BME280;25088;43.238;23.110;2024-01-30T06:36:15;98730.44;;;2.46;59.21
39363;BME280;25088;43.238;23.110;2024-01-30T06:38:41;98734.16;;;2.63;58.88
39363;BME280;25088;43.238;23.110;2024-01-30T06:41:06;98740.41;;;2.63;58.95
39363;BME280;25088;43.238;23.110;2024-01-30T06:43:32;98724.72;;;2.76;59.02
39363;BME280;25088;43.238;23.110;2024-01-30T06:45:58;98738.59;;;2.81;58.08
39363;BME280;25088;43.238;23.110;2024-01-30T06:48:24;98737.06;;;2.79;58.39
39363;BME280;25088;43.238;23.110;2024-01-30T06:50:50;98736.13;;;2.88;67.68
39363;BME280;25088;43.238;23.110;2024-01-30T06:53:16;98740.41;;;3.08;63.93
39363;BME280;25088;43.238;23.110;2024-01-30T06:55:41;98737.75;;;3.17;60.12
39363;BME280;25088;43.238;23.110;2024-01-30T06:58:07;98742.88;;;3.20;60.29
39363;BME280;25088;43.238;23.110;2024-01-30T07:00:32;98729.41;;;3.28;62.38
39363;BME280;25088;43.238;23.110;2024-01-30T07:02:57;98739.81;;;3.58;59.00
39363;BME280;25088;43.238;23.110;2024-01-30T07:05:23;98726.63;;;3.55;56.59
39363;BME280;25088;43.238;23.110;2024-01-30T07:07:48;98737.72;;;3.52;56.67
39363;BME280;25088;43.238;23.110;2024-01-30T07:10:14;98738.13;;;3.40;57.14
39363;BME280;25088;43.238;23.110;2024-01-30T07:12:39;98737.69;;;3.26;57.20
39363;BME280;25088;43.238;23.110;2024-01-30T07:15:05;98747.50;;;3.09;58.07
39363;BME280;25088;43.238;23.110;2024-01-30T07:17:33;98737.53;;;2.92;58.62
39363;BME280;25088;43.238;23.110;2024-01-30T07:19:59;98742.53;;;2.87;58.99
39363;BME280;25088;43.238;23.110;2024-01-30T07:22:24;98749.84;;;2.77;58.78
39363;BME280;25088;43.238;23.110;2024-01-30T07:24:50;98748.31;;;2.74;59.43
39363;BME280;25088;43.238;23.110;2024-01-30T07:27:17;98748.03;;;2.95;58.70
39363;BME280;25088;43.238;23.110;2024-01-30T07:29:43;98748.03;;;2.95;58.85
39363;BME280;25088;43.238;23.110;2024-01-30T07:32:09;98746.41;;;2.84;59.18
39363;BME280;25088;43.238;23.110;2024-01-30T07:34:34;98747.47;;;2.92;59.85
39363;BME280;25088;43.238;23.110;2024-01-30T07:37:00;98746.56;;;3.01;59.39
39363;BME280;25088;43.238;23.110;2024-01-30T07:39:25;98744.84;;;3.18;58.43
39363;BME280;25088;43.238;23.110;2024-01-30T07:41:50;98748.09;;;3.39;58.01
39363;BME280;25088;43.238;23.110;2024-01-30T07:44:16;98747.91;;;3.58;57.53
39363;BME280;25088;43.238;23.110;2024-01-30T07:46:41;98749.75;;;3.58;55.95
39363;BME280;25088;43.238;23.110;2024-01-30T07:49:07;98751.19;;;3.70;55.48
39363;BME280;25088;43.238;23.110;2024-01-30T07:51:32;98758.56;;;3.86;55.78
39363;BME280;25088;43.238;23.110;2024-01-30T07:53:58;98754.91;;;3.95;55.89
39363;BME280;25088;43.238;23.110;2024-01-30T07:56:23;98758.06;;;4.08;55.06
39363;BME280;25088;43.238;23.110;2024-01-30T07:58:49;98748.81;;;4.19;54.85
39363;BME280;25088;43.238;23.110;2024-01-30T08:01:15;98733.06;;;4.14;55.65
39363;BME280;25088;43.238;23.110;2024-01-30T08:03:41;98741.75;;;4.26;55.49
39363;BME280;25088;43.238;23.110;2024-01-30T08:06:07;98745.88;;;4.38;55.20
39363;BME280;25088;43.238;23.110;2024-01-30T08:08:32;98750.44;;;4.46;54.98
39363;BME280;25088;43.238;23.110;2024-01-30T08:10:58;98737.50;;;4.58;54.45
39363;BME280;25088;43.238;23.110;2024-01-30T08:13:23;98720.91;;;4.61;54.32
39363;BME280;25088;43.238;23.110;2024-01-30T08:15:49;98752.59;;;4.77;54.15
39363;BME280;25088;43.238;23.110;2024-01-30T08:18:14;98749.56;;;4.80;54.50
39363;BME280;25088;43.238;23.110;2024-01-30T08:20:40;98754.00;;;4.97;53.88
39363;BME280;25088;43.238;23.110;2024-01-30T08:23:05;98750.19;;;5.32;53.29
39363;BME280;25088;43.238;23.110;2024-01-30T08:25:31;98741.88;;;6.55;51.42
39363;BME280;25088;43.238;23.110;2024-01-30T08:27:56;98733.44;;;7.12;48.56
39363;BME280;25088;43.238;23.110;2024-01-30T08:30:22;98737.00;;;7.12;47.41
39363;BME280;25088;43.238;23.110;2024-01-30T08:32:48;98739.34;;;6.92;48.38
39363;BME280;25088;43.238;23.110;2024-01-30T08:35:13;98724.97;;;6.76;47.90
39363;BME280;25088;43.238;23.110;2024-01-30T08:37:41;98724.53;;;6.64;48.86
39363;BME280;25088;43.238;23.110;2024-01-30T08:40:07;98739.66;;;6.58;48.22
39363;BME280;25088;43.238;23.110;2024-01-30T08:42:34;98699.66;;;6.13;48.56
39363;BME280;25088;43.238;23.110;2024-01-30T08:44:59;98751.13;;;6.37;47.49
39363;BME280;25088;43.238;23.110;2024-01-30T08:47:25;98740.13;;;6.22;47.84
39363;BME280;25088;43.238;23.110;2024-01-30T08:49:51;98727.75;;;6.20;47.13
39363;BME280;25088;43.238;23.110;2024-01-30T08:52:16;98751.22;;;6.52;45.86
39363;BME280;25088;43.238;23.110;2024-01-30T08:54:42;98744.56;;;6.63;44.34
39363;BME280;25088;43.238;23.110;2024-01-30T08:57:08;98751.13;;;6.77;42.73
39363;BME280;25088;43.238;23.110;2024-01-30T08:59:34;98740.72;;;6.88;42.99
39363;BME280;25088;43.238;23.110;2024-01-30T09:01:59;98744.34;;;7.04;41.61
39363;BME280;25088;43.238;23.110;2024-01-30T09:04:25;98728.41;;;7.00;41.32
39363;BME280;25088;43.238;23.110;2024-01-30T09:06:51;98746.22;;;7.03;42.23
39363;BME280;25088;43.238;23.110;2024-01-30T09:09:17;98734.97;;;6.83;41.08
39363;BME280;25088;43.238;23.110;2024-01-30T09:11:43;98745.91;;;6.98;41.13
39363;BME280;25088;43.238;23.110;2024-01-30T09:14:08;98738.44;;;7.69;40.48
39363;BME280;25088;43.238;23.110;2024-01-30T09:16:34;98726.28;;;8.47;38.49
39363;BME280;25088;43.238;23.110;2024-01-30T09:19:02;98735.31;;;7.95;37.58
39363;BME280;25088;43.238;23.110;2024-01-30T09:21:28;98735.47;;;7.56;38.30
39363;BME280;25088;43.238;23.110;2024-01-30T09:24:02;98736.59;;;7.23;39.51
39363;BME280;25088;43.238;23.110;2024-01-30T09:26:31;98735.09;;;6.90;39.81
39363;BME280;25088;43.238;23.110;2024-01-30T09:28:56;98743.44;;;6.80;40.40
39363;BME280;25088;43.238;23.110;2024-01-30T09:31:21;98748.31;;;6.62;39.85
39363;BME280;25088;43.238;23.110;2024-01-30T09:33:47;98742.41;;;6.50;41.24
39363;BME280;25088;43.238;23.110;2024-01-30T09:36:13;98737.03;;;6.34;41.41
39363;BME280;25088;43.238;23.110;2024-01-30T09:38:40;98728.59;;;6.29;41.96
39363;BME280;25088;43.238;23.110;2024-01-30T09:41:09;98739.91;;;6.80;41.29
39363;BME280;25088;43.238;23.110;2024-01-30T09:43:35;98723.72;;;8.60;38.78
39363;BME280;25088;43.238;23.110;2024-01-30T09:46:02;98709.22;;;9.96;37.26
39363;BME280;25088;43.238;23.110;2024-01-30T09:48:30;98709.81;;;11.02;34.90
39363;BME280;25088;43.238;23.110;2024-01-30T09:50:57;98680.72;;;11.69;34.41
39363;BME280;25088;43.238;23.110;2024-01-30T09:53:22;98692.63;;;12.48;32.42
39363;BME280;25088;43.238;23.110;2024-01-30T09:55:49;98681.81;;;13.11;32.06
39363;BME280;25088;43.238;23.110;2024-01-30T09:58:16;98683.06;;;13.22;31.96
39363;BME280;25088;43.238;23.110;2024-01-30T10:00:41;98668.75;;;13.76;31.28
39363;BME280;25088;43.238;23.110;2024-01-30T10:03:08;98652.09;;;13.71;30.63
39363;BME280;25088;43.238;23.110;2024-01-30T10:05:35;98651.59;;;14.06;30.63
39363;BME280;25088;43.238;23.110;2024-01-30T10:08:00;98671.78;;;13.36;29.95
39363;BME280;25088;43.238;23.110;2024-01-30T10:10:26;98673.28;;;13.64;30.46
39363;BME280;25088;43.238;23.110;2024-01-30T10:12:52;98667.66;;;14.02;30.47
39363;BME280;25088;43.238;23.110;2024-01-30T10:15:17;98663.53;;;14.18;30.21
39363;BME280;25088;43.238;23.110;2024-01-30T10:17:44;98660.31;;;14.21;29.33
39363;BME280;25088;43.238;23.110;2024-01-30T10:20:11;98651.47;;;14.19;28.77
39363;BME280;25088;43.238;23.110;2024-01-30T10:22:36;98656.56;;;14.59;28.46
39363;BME280;25088;43.238;23.110;2024-01-30T10:25:02;98655.88;;;14.63;28.33
39363;BME280;25088;43.238;23.110;2024-01-30T10:27:28;98657.00;;;14.56;29.03
39363;BME280;25088;43.238;23.110;2024-01-30T10:29:55;98640.66;;;14.61;28.23
39363;BME280;25088;43.238;23.110;2024-01-30T10:32:21;98641.94;;;14.40;28.49
39363;BME280;25088;43.238;23.110;2024-01-30T10:34:47;98652.22;;;14.99;27.96
39363;BME280;25088;43.238;23.110;2024-01-30T10:37:12;98649.59;;;15.35;27.56
39363;BME280;25088;43.238;23.110;2024-01-30T10:39:41;98645.47;;;15.56;27.85
39363;BME280;25088;43.238;23.110;2024-01-30T10:42:15;98637.19;;;15.97;27.34
39363;BME280;25088;43.238;23.110;2024-01-30T10:47:30;98585.63;;;16.33;26.24
39363;BME280;25088;43.238;23.110;2024-01-30T10:49:59;98613.44;;;16.32;25.87
39363;BME280;25088;43.238;23.110;2024-01-30T10:52:25;98614.75;;;16.29;26.35
39363;BME280;25088;43.238;23.110;2024-01-30T10:54:51;98617.00;;;16.44;26.15
39363;BME280;25088;43.238;23.110;2024-01-30T10:57:18;98600.25;;;16.34;26.81
39363;BME280;25088;43.238;23.110;2024-01-30T10:59:43;98600.63;;;16.37;26.03
39363;BME280;25088;43.238;23.110;2024-01-30T11:02:11;98604.97;;;15.98;27.39
39363;BME280;25088;43.238;23.110;2024-01-30T11:04:45;98598.31;;;15.52;27.52
39363;BME280;25088;43.238;23.110;2024-01-30T11:07:18;98610.72;;;15.96;26.62
39363;BME280;25088;43.238;23.110;2024-01-30T11:10:08;98593.31;;;15.96;26.75
39363;BME280;25088;43.238;23.110;2024-01-30T11:12:39;98606.03;;;16.09;26.51
39363;BME280;25088;43.238;23.110;2024-01-30T11:15:15;98597.41;;;16.17;26.98
39363;BME280;25088;43.238;23.110;2024-01-30T11:17:49;98606.63;;;16.22;26.40
39363;BME280;25088;43.238;23.110;2024-01-30T11:20:22;98607.22;;;16.13;26.56
39363;BME280;25088;43.238;23.110;2024-01-30T11:22:52;98595.59;;;16.11;26.69
39363;BME280;25088;43.238;23.110;2024-01-30T11:25:20;98597.13;;;16.42;26.00
39363;BME280;25088;43.238;23.110;2024-01-30T11:27:46;98593.69;;;16.23;26.03
39363;BME280;25088;43.238;23.110;2024-01-30T11:30:41;98592.00;;;15.63;27.18
39363;BME280;25088;43.238;23.110;2024-01-30T11:33:11;98575.13;;;16.07;26.55
39363;BME280;25088;43.238;23.110;2024-01-30T11:35:38;98586.28;;;16.12;26.19
39363;BME280;25088;43.238;23.110;2024-01-30T11:38:05;98584.09;;;16.14;26.59
39363;BME280;25088;43.238;23.110;2024-01-30T11:40:33;98586.44;;;16.57;25.51
39363;BME280;25088;43.238;23.110;2024-01-30T11:43:00;98578.25;;;16.74;24.93
39363;BME280;25088;43.238;23.110;2024-01-30T11:45:27;98569.72;;;16.75;25.34
39363;BME280;25088;43.238;23.110;2024-01-30T11:47:53;98577.84;;;16.82;25.80
39363;BME280;25088;43.238;23.110;2024-01-30T11:50:18;98563.84;;;16.20;26.14
39363;BME280;25088;43.238;23.110;2024-01-30T11:52:44;98566.22;;;16.80;25.38
39363;BME280;25088;43.238;23.110;2024-01-30T11:55:10;98555.53;;;17.29;24.64
39363;BME280;25088;43.238;23.110;2024-01-30T11:57:35;98548.19;;;17.51;24.44
39363;BME280;25088;43.238;23.110;2024-01-30T12:00:05;98543.75;;;17.50;24.26
39363;BME280;25088;43.238;23.110;2024-01-30T12:02:38;98535.50;;;17.05;24.59
39363;BME280;25088;43.238;23.110;2024-01-30T12:05:06;98539.00;;;17.46;24.65
39363;BME280;25088;43.238;23.110;2024-01-30T12:07:32;98541.41;;;17.42;24.42
39363;BME280;25088;43.238;23.110;2024-01-30T12:09:58;98546.09;;;17.58;24.19
39363;BME280;25088;43.238;23.110;2024-01-30T12:12:25;98538.13;;;17.45;24.52
39363;BME280;25088;43.238;23.110;2024-01-30T12:14:51;98539.63;;;17.19;24.80
39363;BME280;25088;43.238;23.110;2024-01-30T12:22:40;98524.75;;;16.75;25.31
39363;BME280;25088;43.238;23.110;2024-01-30T12:27:38;98509.44;;;17.13;24.86
39363;BME280;25088;43.238;23.110;2024-01-30T12:30:08;98508.44;;;17.02;24.99
39363;BME280;25088;43.238;23.110;2024-01-30T12:32:39;98516.22;;;17.22;24.58
39363;BME280;25088;43.238;23.110;2024-01-30T12:35:10;98513.28;;;17.62;24.29
39363;BME280;25088;43.238;23.110;2024-01-30T12:37:35;98505.31;;;17.15;25.21
39363;BME280;25088;43.238;23.110;2024-01-30T12:40:01;98518.69;;;16.49;25.40
39363;BME280;25088;43.238;23.110;2024-01-30T12:42:27;98520.75;;;15.90;26.16
39363;BME280;25088;43.238;23.110;2024-01-30T12:44:53;98523.13;;;15.28;26.17
39363;BME280;25088;43.238;23.110;2024-01-30T12:47:21;98522.47;;;15.68;26.27
39363;BME280;25088;43.238;23.110;2024-01-30T12:49:47;98513.22;;;15.97;25.98
39363;BME280;25088;43.238;23.110;2024-01-30T12:52:16;98487.88;;;16.24;25.97
39363;BME280;25088;43.238;23.110;2024-01-30T12:54:42;98504.69;;;16.51;25.81
39363;BME280;25088;43.238;23.110;2024-01-30T12:57:08;98491.09;;;16.61;25.89
39363;BME280;25088;43.238;23.110;2024-01-30T12:59:33;98509.13;;;16.00;26.42
39363;BME280;25088;43.238;23.110;2024-01-30T13:02:00;98473.97;;;15.43;26.59
39363;BME280;25088;43.238;23.110;2024-01-30T13:04:27;98495.34;;;15.41;26.68
39363;BME280;25088;43.238;23.110;2024-01-30T13:06:53;98509.38;;;15.28;26.85